| time (UTC) | temp F | wind direction | speed MPH | gust MPH | rain 1hr in | rain 24hr in | rain mn in | humidity % | barometer mb |
| 20260510231518 | 0 | 0.0 | 0.0 | 0.00 | 0.04 | 0.01 | 1014.1 | ||
| 20260510230014 | 0 | 0.0 | 0.0 | 0.00 | 0.04 | 0.01 | 1014.0 | ||
| 20260510224521 | 0 | 0.0 | 0.0 | 0.00 | 0.04 | 0.01 | 1014.0 | ||
| 20260510223005 | 0 | 0.0 | 0.0 | 0.00 | 0.04 | 0.01 | 1014.1 | ||
| 20260510221503 | 0 | 0.0 | 0.0 | 0.00 | 0.04 | 0.01 | 1014.0 | ||
| 20260510220057 | 0 | 0.0 | 0.0 | 0.00 | 0.04 | 0.01 | 1013.9 | ||
| 20260510214552 | 0 | 0.0 | 0.0 | 0.00 | 0.04 | 0.01 | 1013.9 | ||
| 20260510213049 | 0 | 0.0 | 0.0 | 0.00 | 0.04 | 0.01 | 1013.9 | ||
| 20260510211548 | 0 | 0.0 | 0.0 | 0.00 | 0.04 | 0.01 | 1014.0 | ||
| 20260510210106 | 0 | 0.0 | 0.0 | 0.00 | 0.04 | 0.01 | 1014.1 | ||
| 20260510204547 | 0 | 0.0 | 0.0 | 0.00 | 0.04 | 0.01 | 1014.1 | ||
| 20260510203047 | 0 | 0.0 | 0.0 | 0.00 | 0.04 | 0.01 | 1014.1 | ||
| 20260510201546 | 0 | 0.0 | 0.0 | 0.00 | 0.04 | 0.01 | 1014.1 | ||
| 20260510200046 | 0 | 0.0 | 0.0 | 0.00 | 0.04 | 0.01 | 1014.2 | ||
| 20260510194542 | 0 | 0.0 | 0.0 | 0.00 | 0.04 | 0.01 | 1014.2 | ||
| 20260510193052 | 0 | 0.0 | 0.0 | 0.00 | 0.04 | 0.01 | 1014.3 | ||
| 20260510191537 | 0 | 0.0 | 0.0 | 0.00 | 0.04 | 0.01 | 1014.5 | ||
| 20260510190033 | 0 | 0.0 | 0.0 | 0.00 | 0.04 | 0.01 | 1014.6 | ||
| 20260510184524 | 0 | 0.0 | 0.0 | 0.00 | 0.04 | 0.01 | 1014.7 | ||
| 20260510183033 | 0 | 0.0 | 0.0 | 0.00 | 0.04 | 0.01 | 1014.8 | ||
| 20260510181515 | 0 | 0.0 | 0.0 | 0.00 | 0.04 | 0.01 | 1015.1 | ||
| 20260510180011 | 0 | 0.0 | 0.0 | 0.00 | 0.04 | 0.01 | 1015.2 | ||
| 20260510174507 | 0 | 0.0 | 0.0 | 0.00 | 0.10 | 0.01 | 1015.5 | ||
| 20260510173003 | 0 | 0.0 | 0.0 | 0.00 | 0.10 | 0.01 | 1015.5 | ||
| 20260510171603 | 0 | 0.0 | 0.0 | 0.00 | 0.10 | 0.01 | 1015.6 | ||
| 20260510164559 | 78 | 127 | 2.0 | 5.0 | 0.00 | 0.17 | 0.01 | 78 | 1015.9 |
| 20260510163053 | 77 | 175 | 1.0 | 5.0 | 0.00 | 0.17 | 0.01 | 77 | 1015.9 |
| 20260510161551 | 77 | 243 | 2.0 | 5.0 | 0.00 | 0.17 | 0.01 | 80 | 1015.8 |
| 20260510160058 | 76 | 222 | 2.0 | 5.0 | 0.00 | 0.17 | 0.01 | 82 | 1016.0 |
| 20260510154553 | 76 | 207 | 2.0 | 5.0 | 0.00 | 0.49 | 0.01 | 79 | 1015.9 |
| 20260510153049 | 76 | 112 | 1.0 | 3.0 | 0.00 | 0.49 | 0.01 | 80 | 1015.9 |
| 20260510151544 | 76 | 56 | 1.0 | 4.0 | 0.00 | 0.49 | 0.01 | 81 | 1016.0 |
| 20260510150042 | 75 | 269 | 0.0 | 4.0 | 0.00 | 0.49 | 0.01 | 85 | 1015.8 |
| 20260510144538 | 73 | 186 | 0.0 | 3.0 | 0.00 | 0.66 | 0.01 | 90 | 1016.2 |
| 20260510143039 | 71 | 123 | 2.0 | 4.0 | 0.00 | 0.66 | 0.01 | 91 | 1016.2 |
| 20260510141531 | 70 | 158 | 2.0 | 5.0 | 0.00 | 0.66 | 0.01 | 92 | 1015.9 |
| 20260510140029 | 70 | 153 | 3.0 | 7.0 | 0.00 | 0.66 | 0.01 | 92 | 1016.1 |
| 20260510134526 | 69 | 195 | 2.0 | 4.0 | 0.00 | 0.70 | 0.01 | 93 | 1015.9 |
| 20260510133023 | 68 | 143 | 1.0 | 3.0 | 0.00 | 0.70 | 0.01 | 95 | 1015.8 |
| 20260510131519 | 67 | 179 | 2.0 | 3.0 | 0.00 | 0.70 | 0.01 | 96 | 1015.7 |
| 20260510130026 | 66 | 190 | 2.0 | 3.0 | 0.00 | 0.70 | 0.01 | 97 | 1015.4 |
| 20260510124516 | 66 | 179 | 0.0 | 4.0 | 0.00 | 0.71 | 0.01 | 97 | 1015.3 |
| 20260510123014 | 65 | 231 | 2.0 | 3.0 | 0.00 | 0.71 | 0.01 | 97 | 1015.2 |
| 20260510121511 | 64 | 212 | 1.0 | 2.0 | 0.01 | 0.71 | 0.01 | 97 | 1015.1 |
| 20260510120008 | 64 | 211 | 0.0 | 2.0 | 0.01 | 0.71 | 0.01 | 97 | 1014.8 |
| 20260510114512 | 63 | 217 | 1.0 | 1.0 | 0.01 | 0.73 | 0.01 | 97 | 1014.6 |
| 20260510113008 | 63 | 218 | 0.0 | 0.0 | 0.01 | 0.73 | 0.01 | 97 | 1014.4 |
| 20260510111502 | 63 | 218 | 0.0 | 1.0 | 0.00 | 0.72 | 0.00 | 97 | 1014.2 |
| 20260510110100 | 62 | 218 | 0.0 | 0.0 | 0.00 | 0.72 | 0.00 | 97 | 1013.9 |
| 20260510104608 | 63 | 218 | 0.0 | 1.0 | 0.00 | 0.73 | 0.00 | 97 | 1013.5 |
| 20260510103056 | 63 | 218 | 0.0 | 1.0 | 0.00 | 0.73 | 0.00 | 97 | 1013.3 |
| 20260510101554 | 63 | 218 | 0.0 | 0.0 | 0.00 | 0.00 | 0.00 | 97 | 1013.1 |
| 20260510100053 | 64 | 218 | 1.0 | 3.0 | 0.00 | 0.73 | 0.00 | 97 | 1012.9 |
| 20260510094550 | 64 | 169 | 1.0 | 3.0 | 0.00 | 0.73 | 0.00 | 97 | 1012.9 |
| 20260510093050 | 64 | 195 | 1.0 | 3.0 | 0.00 | 0.73 | 0.00 | 97 | 1012.9 |
| 20260510091555 | 64 | 217 | 2.0 | 4.0 | 0.00 | 0.73 | 0.00 | 97 | 1012.7 |
| 20260510090101 | 64 | 225 | 2.0 | 4.0 | 0.00 | 0.73 | 0.00 | 97 | 1012.6 |
| 20260510084554 | 64 | 176 | 0.0 | 1.0 | 0.00 | 0.89 | 0.00 | 97 | 1012.7 |
| 20260510083044 | 64 | 172 | 1.0 | 3.0 | 0.00 | 0.89 | 0.00 | 97 | 1012.6 |
| 20260510081547 | 64 | 141 | 2.0 | 4.0 | 0.00 | 0.89 | 0.00 | 97 | 1012.5 |
| 20260510080043 | 64 | 142 | 0.0 | 1.0 | 0.00 | 0.89 | 0.00 | 97 | 1012.2 |
| 20260510074543 | 64 | 142 | 1.0 | 2.0 | 0.00 | 0.89 | 0.00 | 97 | 1011.9 |
| 20260510073043 | 65 | 142 | 0.0 | 2.0 | 0.00 | 0.89 | 0.00 | 97 | 1011.9 |
| 20260510071542 | 65 | 142 | 0.0 | 1.0 | 0.00 | 0.89 | 0.00 | 97 | 1011.8 |
| 20260510070046 | 65 | 142 | 0.0 | 4.0 | 0.00 | 0.89 | 0.00 | 97 | 1011.9 |
| 20260510064557 | 65 | 139 | 0.0 | 0.0 | 0.00 | 0.89 | 0.00 | 96 | 1011.8 |
| 20260510063045 | 65 | 279 | 0.0 | 2.0 | 0.00 | 0.89 | 0.00 | 96 | 1011.6 |
| 20260510061546 | 65 | 280 | 0.0 | 3.0 | 0.00 | 0.89 | 0.00 | 96 | 1011.5 |
| 20260510060039 | 65 | 281 | 1.0 | 3.0 | 0.00 | 0.89 | 0.00 | 96 | 1011.7 |
| 20260510054531 | 66 | 245 | 0.0 | 2.0 | 0.00 | 0.89 | 0.00 | 96 | 1012.0 |
| 20260510053029 | 66 | 137 | 2.0 | 4.0 | 0.00 | 0.89 | 0.00 | 96 | 1012.7 |
| 20260510051527 | 66 | 146 | 3.0 | 5.0 | 0.00 | 0.89 | 0.00 | 96 | 1012.7 |
| 20260510050030 | 66 | 140 | 4.0 | 5.0 | 0.00 | 0.89 | 0.00 | 96 | 1012.5 |
| 20260510044531 | 66 | 198 | 0.0 | 0.0 | 0.00 | 0.89 | 0.89 | 96 | 1012.4 |
| 20260510043024 | 66 | 198 | 0.0 | 2.0 | 0.00 | 0.89 | 0.89 | 96 | 1012.5 |
| 20260510041523 | 66 | 218 | 1.0 | 2.0 | 0.00 | 0.89 | 0.89 | 96 | 1012.8 |
| 20260510040023 | 66 | 155 | 0.0 | 2.0 | 0.00 | 0.89 | 0.89 | 96 | 1013.1 |
| 20260510034523 | 66 | 165 | 2.0 | 5.0 | 0.00 | 0.89 | 0.89 | 96 | 1013.2 |
| 20260510033022 | 66 | 184 | 2.0 | 3.0 | 0.00 | 0.89 | 0.89 | 96 | 1012.9 |
| 20260510031521 | 66 | 271 | 0.0 | 1.0 | 0.00 | 0.89 | 0.89 | 96 | 1013.0 |
| 20260510030021 | 66 | 272 | 0.0 | 2.0 | 0.00 | 0.89 | 0.89 | 96 | 1012.6 |
| 20260510024524 | 66 | 298 | 0.0 | 2.0 | 0.00 | 0.90 | 0.89 | 95 | 1012.0 |
| 20260510023020 | 66 | 328 | 0.0 | 1.0 | 0.01 | 0.90 | 0.89 | 95 | 1012.4 |
| 20260510021519 | 66 | 32 | 0.0 | 1.0 | 0.01 | 0.90 | 0.89 | 95 | 1012.7 |
| 20260510020019 | 66 | 32 | 0.0 | 0.0 | 0.01 | 0.90 | 0.89 | 95 | 1012.5 |
| 20260510014526 | 67 | 32 | 0.0 | 0.0 | 0.01 | 0.93 | 0.89 | 95 | 1012.5 |
| 20260510013021 | 67 | 32 | 0.0 | 2.0 | 0.01 | 0.92 | 0.88 | 95 | 1012.4 |
| 20260510011522 | 67 | 46 | 0.0 | 2.0 | 0.01 | 0.92 | 0.88 | 95 | 1012.5 |
| 20260510010017 | 67 | 85 | 0.0 | 2.0 | 0.01 | 0.92 | 0.88 | 95 | 1012.5 |
| 20260510004516 | 67 | 141 | 0.0 | 1.0 | 0.01 | 0.92 | 0.88 | 95 | 1012.1 |
| 20260510003016 | 67 | 140 | 0.0 | 2.0 | 0.01 | 0.91 | 0.87 | 94 | 1011.9 |
| 20260510001515 | 67 | 126 | 0.0 | 2.0 | 0.01 | 0.91 | 0.87 | 94 | 1012.0 |
| 20260510000014 | 67 | 131 | 0.0 | 2.0 | 0.01 | 0.91 | 0.87 | 94 | 1011.9 |
| 20260509234528 | 67 | 102 | 1.0 | 3.0 | 0.01 | 0.92 | 0.87 | 94 | 1011.7 |
| 20260509233029 | 67 | 279 | 0.0 | 1.0 | 0.00 | 0.91 | 0.86 | 93 | 1011.4 |